sensor_id;sensor_type;location;lat;lon;timestamp;P1;durP1;ratioP1;P2;durP2;ratioP2
56171;SDS011;42052;41.634;-0.946;2023-05-10T00:02:40;6.13;;;1.50;;
56171;SDS011;42052;41.634;-0.946;2023-05-10T00:05:26;5.05;;;1.48;;
56171;SDS011;42052;41.634;-0.946;2023-05-10T00:08:13;4.88;;;1.48;;
56171;SDS011;42052;41.634;-0.946;2023-05-10T00:10:59;5.85;;;1.33;;
56171;SDS011;42052;41.634;-0.946;2023-05-10T00:13:45;3.42;;;1.25;;
56171;SDS011;42052;41.634;-0.946;2023-05-10T00:16:31;4.20;;;1.42;;
56171;SDS011;42052;41.634;-0.946;2023-05-10T00:19:17;6.20;;;1.65;;
56171;SDS011;42052;41.634;-0.946;2023-05-10T00:22:03;4.72;;;1.48;;
56171;SDS011;42052;41.634;-0.946;2023-05-10T00:24:50;7.68;;;1.52;;
56171;SDS011;42052;41.634;-0.946;2023-05-10T00:27:36;5.63;;;1.40;;
56171;SDS011;42052;41.634;-0.946;2023-05-10T00:30:22;5.15;;;1.60;;
56171;SDS011;42052;41.634;-0.946;2023-05-10T00:33:08;5.60;;;1.40;;
56171;SDS011;42052;41.634;-0.946;2023-05-10T00:35:54;7.47;;;1.13;;
56171;SDS011;42052;41.634;-0.946;2023-05-10T00:38:41;5.55;;;1.30;;
56171;SDS011;42052;41.634;-0.946;2023-05-10T00:41:29;5.32;;;1.45;;
56171;SDS011;42052;41.634;-0.946;2023-05-10T00:44:17;6.13;;;1.50;;
56171;SDS011;42052;41.634;-0.946;2023-05-10T00:47:04;6.18;;;1.50;;
56171;SDS011;42052;41.634;-0.946;2023-05-10T00:49:50;5.30;;;1.27;;
56171;SDS011;42052;41.634;-0.946;2023-05-10T00:52:37;8.52;;;1.60;;
56171;SDS011;42052;41.634;-0.946;2023-05-10T00:55:23;5.82;;;1.35;;
56171;SDS011;42052;41.634;-0.946;2023-05-10T00:58:09;6.50;;;1.50;;
56171;SDS011;42052;41.634;-0.946;2023-05-10T01:00:55;6.15;;;1.70;;
56171;SDS011;42052;41.634;-0.946;2023-05-10T01:03:43;6.22;;;1.40;;
56171;SDS011;42052;41.634;-0.946;2023-05-10T01:06:29;6.28;;;1.65;;
56171;SDS011;42052;41.634;-0.946;2023-05-10T01:09:15;6.22;;;1.65;;
56171;SDS011;42052;41.634;-0.946;2023-05-10T01:12:02;5.22;;;1.63;;
56171;SDS011;42052;41.634;-0.946;2023-05-10T01:14:52;5.10;;;1.40;;
56171;SDS011;42052;41.634;-0.946;2023-05-10T01:17:40;3.55;;;1.25;;
56171;SDS011;42052;41.634;-0.946;2023-05-10T01:20:42;6.95;;;1.73;;
56171;SDS011;42052;41.634;-0.946;2023-05-10T01:26:57;5.82;;;1.38;;
56171;SDS011;42052;41.634;-0.946;2023-05-10T01:33:01;5.32;;;1.50;;
56171;SDS011;42052;41.634;-0.946;2023-05-10T01:38:53;4.68;;;1.60;;
56171;SDS011;42052;41.634;-0.946;2023-05-10T01:42:08;5.60;;;1.60;;
56171;SDS011;42052;41.634;-0.946;2023-05-10T01:44:58;7.50;;;1.92;;
56171;SDS011;42052;41.634;-0.946;2023-05-10T01:50:56;4.88;;;1.40;;
56171;SDS011;42052;41.634;-0.946;2023-05-10T01:53:44;6.60;;;1.90;;
56171;SDS011;42052;41.634;-0.946;2023-05-10T01:56:33;5.85;;;1.40;;
56171;SDS011;42052;41.634;-0.946;2023-05-10T01:59:23;4.72;;;1.52;;
56171;SDS011;42052;41.634;-0.946;2023-05-10T02:02:16;8.48;;;1.75;;
56171;SDS011;42052;41.634;-0.946;2023-05-10T02:05:06;8.40;;;1.92;;
56171;SDS011;42052;41.634;-0.946;2023-05-10T02:07:53;5.00;;;1.52;;
56171;SDS011;42052;41.634;-0.946;2023-05-10T02:10:41;4.03;;;1.50;;
56171;SDS011;42052;41.634;-0.946;2023-05-10T02:13:28;5.75;;;1.50;;
56171;SDS011;42052;41.634;-0.946;2023-05-10T02:16:17;5.13;;;1.60;;
56171;SDS011;42052;41.634;-0.946;2023-05-10T02:19:06;6.78;;;1.98;;
56171;SDS011;42052;41.634;-0.946;2023-05-10T02:21:54;6.75;;;1.70;;
56171;SDS011;42052;41.634;-0.946;2023-05-10T02:24:41;6.82;;;1.85;;
56171;SDS011;42052;41.634;-0.946;2023-05-10T02:27:29;6.78;;;1.60;;
56171;SDS011;42052;41.634;-0.946;2023-05-10T02:30:15;6.60;;;1.77;;
56171;SDS011;42052;41.634;-0.946;2023-05-10T02:33:03;6.15;;;1.55;;
56171;SDS011;42052;41.634;-0.946;2023-05-10T02:35:50;8.02;;;1.60;;
56171;SDS011;42052;41.634;-0.946;2023-05-10T02:38:37;10.90;;;1.85;;
56171;SDS011;42052;41.634;-0.946;2023-05-10T02:41:24;7.85;;;1.85;;
56171;SDS011;42052;41.634;-0.946;2023-05-10T02:44:11;7.50;;;1.58;;
56171;SDS011;42052;41.634;-0.946;2023-05-10T02:47:01;6.72;;;1.80;;
56171;SDS011;42052;41.634;-0.946;2023-05-10T02:49:47;5.82;;;1.73;;
56171;SDS011;42052;41.634;-0.946;2023-05-10T02:52:37;5.55;;;1.58;;
56171;SDS011;42052;41.634;-0.946;2023-05-10T02:55:40;6.70;;;1.88;;
56171;SDS011;42052;41.634;-0.946;2023-05-10T02:58:27;6.45;;;1.90;;
56171;SDS011;42052;41.634;-0.946;2023-05-10T03:01:13;4.15;;;1.48;;
56171;SDS011;42052;41.634;-0.946;2023-05-10T03:03:59;6.38;;;1.73;;
56171;SDS011;42052;41.634;-0.946;2023-05-10T03:06:46;5.43;;;1.77;;
56171;SDS011;42052;41.634;-0.946;2023-05-10T03:09:32;6.43;;;1.65;;
56171;SDS011;42052;41.634;-0.946;2023-05-10T03:18:06;5.57;;;1.45;;
56171;SDS011;42052;41.634;-0.946;2023-05-10T03:20:57;7.43;;;1.83;;
56171;SDS011;42052;41.634;-0.946;2023-05-10T03:23:47;5.75;;;1.45;;
56171;SDS011;42052;41.634;-0.946;2023-05-10T03:26:39;5.85;;;1.80;;
56171;SDS011;42052;41.634;-0.946;2023-05-10T03:29:28;5.38;;;1.63;;
56171;SDS011;42052;41.634;-0.946;2023-05-10T03:32:16;5.93;;;1.73;;
56171;SDS011;42052;41.634;-0.946;2023-05-10T03:35:08;5.30;;;1.88;;
56171;SDS011;42052;41.634;-0.946;2023-05-10T03:37:55;4.90;;;1.52;;
56171;SDS011;42052;41.634;-0.946;2023-05-10T03:40:41;6.43;;;1.70;;
56171;SDS011;42052;41.634;-0.946;2023-05-10T03:43:27;5.93;;;1.60;;
56171;SDS011;42052;41.634;-0.946;2023-05-10T03:46:13;5.63;;;1.48;;
56171;SDS011;42052;41.634;-0.946;2023-05-10T03:49:00;4.82;;;1.75;;
56171;SDS011;42052;41.634;-0.946;2023-05-10T03:51:46;5.43;;;1.60;;
56171;SDS011;42052;41.634;-0.946;2023-05-10T03:54:32;6.72;;;1.70;;
56171;SDS011;42052;41.634;-0.946;2023-05-10T03:57:18;6.93;;;1.77;;
56171;SDS011;42052;41.634;-0.946;2023-05-10T04:00:04;6.90;;;1.70;;
56171;SDS011;42052;41.634;-0.946;2023-05-10T04:02:50;6.10;;;1.58;;
56171;SDS011;42052;41.634;-0.946;2023-05-10T04:05:37;6.45;;;2.05;;
56171;SDS011;42052;41.634;-0.946;2023-05-10T04:08:23;5.93;;;1.65;;
56171;SDS011;42052;41.634;-0.946;2023-05-10T04:11:09;5.63;;;1.70;;
56171;SDS011;42052;41.634;-0.946;2023-05-10T04:13:56;6.97;;;1.60;;
56171;SDS011;42052;41.634;-0.946;2023-05-10T04:16:43;6.82;;;1.58;;
56171;SDS011;42052;41.634;-0.946;2023-05-10T04:19:32;8.00;;;1.90;;
56171;SDS011;42052;41.634;-0.946;2023-05-10T04:22:18;7.80;;;1.77;;
56171;SDS011;42052;41.634;-0.946;2023-05-10T04:25:04;6.25;;;1.67;;
56171;SDS011;42052;41.634;-0.946;2023-05-10T04:27:51;4.97;;;1.60;;
56171;SDS011;42052;41.634;-0.946;2023-05-10T04:30:38;7.07;;;1.70;;
56171;SDS011;42052;41.634;-0.946;2023-05-10T04:33:24;6.72;;;1.83;;
56171;SDS011;42052;41.634;-0.946;2023-05-10T04:36:10;6.38;;;1.58;;
56171;SDS011;42052;41.634;-0.946;2023-05-10T04:38:56;8.27;;;1.88;;
56171;SDS011;42052;41.634;-0.946;2023-05-10T04:41:42;7.18;;;1.77;;
56171;SDS011;42052;41.634;-0.946;2023-05-10T04:44:28;5.22;;;1.55;;
56171;SDS011;42052;41.634;-0.946;2023-05-10T04:47:15;5.97;;;1.58;;
56171;SDS011;42052;41.634;-0.946;2023-05-10T04:50:01;5.95;;;1.50;;
56171;SDS011;42052;41.634;-0.946;2023-05-10T04:52:48;7.40;;;1.65;;
56171;SDS011;42052;41.634;-0.946;2023-05-10T04:55:34;6.15;;;1.92;;
56171;SDS011;42052;41.634;-0.946;2023-05-10T04:58:20;7.20;;;1.55;;
56171;SDS011;42052;41.634;-0.946;2023-05-10T05:01:07;6.55;;;1.70;;
56171;SDS011;42052;41.634;-0.946;2023-05-10T05:03:53;5.63;;;1.48;;
56171;SDS011;42052;41.634;-0.946;2023-05-10T05:06:39;9.18;;;1.70;;
56171;SDS011;42052;41.634;-0.946;2023-05-10T05:09:26;7.28;;;1.70;;
56171;SDS011;42052;41.634;-0.946;2023-05-10T05:12:12;5.82;;;1.63;;
56171;SDS011;42052;41.634;-0.946;2023-05-10T05:14:59;5.45;;;1.65;;
56171;SDS011;42052;41.634;-0.946;2023-05-10T05:17:46;6.75;;;1.70;;
56171;SDS011;42052;41.634;-0.946;2023-05-10T05:20:32;6.50;;;1.67;;
56171;SDS011;42052;41.634;-0.946;2023-05-10T05:23:19;6.22;;;1.48;;
56171;SDS011;42052;41.634;-0.946;2023-05-10T05:26:06;6.18;;;1.77;;
56171;SDS011;42052;41.634;-0.946;2023-05-10T05:28:52;11.25;;;2.00;;
56171;SDS011;42052;41.634;-0.946;2023-05-10T05:31:39;6.57;;;1.48;;
56171;SDS011;42052;41.634;-0.946;2023-05-10T05:34:25;13.55;;;1.88;;
56171;SDS011;42052;41.634;-0.946;2023-05-10T05:37:13;6.03;;;1.67;;
56171;SDS011;42052;41.634;-0.946;2023-05-10T05:40:02;7.38;;;1.88;;
56171;SDS011;42052;41.634;-0.946;2023-05-10T05:42:49;4.07;;;1.33;;
56171;SDS011;42052;41.634;-0.946;2023-05-10T05:45:35;6.32;;;1.33;;
56171;SDS011;42052;41.634;-0.946;2023-05-10T05:48:21;6.47;;;1.73;;
56171;SDS011;42052;41.634;-0.946;2023-05-10T05:51:07;4.88;;;1.50;;
56171;SDS011;42052;41.634;-0.946;2023-05-10T05:53:53;6.38;;;1.77;;
56171;SDS011;42052;41.634;-0.946;2023-05-10T05:56:39;5.60;;;1.60;;
56171;SDS011;42052;41.634;-0.946;2023-05-10T05:59:26;14.07;;;1.77;;
56171;SDS011;42052;41.634;-0.946;2023-05-10T06:02:12;5.78;;;1.70;;
56171;SDS011;42052;41.634;-0.946;2023-05-10T06:04:58;6.88;;;1.58;;
56171;SDS011;42052;41.634;-0.946;2023-05-10T06:07:45;5.38;;;1.30;;
56171;SDS011;42052;41.634;-0.946;2023-05-10T06:10:31;5.28;;;1.52;;
56171;SDS011;42052;41.634;-0.946;2023-05-10T06:13:17;4.22;;;1.20;;
56171;SDS011;42052;41.634;-0.946;2023-05-10T06:16:03;6.15;;;1.20;;
56171;SDS011;42052;41.634;-0.946;2023-05-10T06:18:50;4.43;;;1.40;;
56171;SDS011;42052;41.634;-0.946;2023-05-10T06:21:36;6.22;;;1.42;;
56171;SDS011;42052;41.634;-0.946;2023-05-10T06:24:22;3.97;;;1.20;;
56171;SDS011;42052;41.634;-0.946;2023-05-10T06:27:08;5.57;;;1.30;;
56171;SDS011;42052;41.634;-0.946;2023-05-10T06:29:54;5.53;;;1.60;;
56171;SDS011;42052;41.634;-0.946;2023-05-10T06:32:41;4.53;;;1.27;;
56171;SDS011;42052;41.634;-0.946;2023-05-10T06:35:29;3.22;;;1.48;;
56171;SDS011;42052;41.634;-0.946;2023-05-10T06:38:15;4.65;;;1.42;;
56171;SDS011;42052;41.634;-0.946;2023-05-10T06:41:01;5.72;;;1.45;;
56171;SDS011;42052;41.634;-0.946;2023-05-10T06:43:47;3.53;;;1.50;;
56171;SDS011;42052;41.634;-0.946;2023-05-10T06:46:33;4.22;;;1.40;;
56171;SDS011;42052;41.634;-0.946;2023-05-10T06:49:19;3.22;;;1.25;;
56171;SDS011;42052;41.634;-0.946;2023-05-10T06:52:05;3.90;;;1.30;;
56171;SDS011;42052;41.634;-0.946;2023-05-10T06:54:53;2.35;;;0.95;;
56171;SDS011;42052;41.634;-0.946;2023-05-10T06:57:39;4.68;;;1.50;;
56171;SDS011;42052;41.634;-0.946;2023-05-10T07:00:25;4.57;;;1.67;;
56171;SDS011;42052;41.634;-0.946;2023-05-10T07:03:11;5.47;;;1.40;;
56171;SDS011;42052;41.634;-0.946;2023-05-10T07:06:03;3.67;;;1.40;;
56171;SDS011;42052;41.634;-0.946;2023-05-10T07:08:50;3.58;;;1.60;;
56171;SDS011;42052;41.634;-0.946;2023-05-10T07:11:36;5.78;;;1.20;;
56171;SDS011;42052;41.634;-0.946;2023-05-10T07:14:22;3.00;;;1.15;;
56171;SDS011;42052;41.634;-0.946;2023-05-10T07:17:09;3.90;;;1.30;;
56171;SDS011;42052;41.634;-0.946;2023-05-10T07:19:55;3.97;;;1.27;;
56171;SDS011;42052;41.634;-0.946;2023-05-10T07:22:41;3.88;;;1.13;;
56171;SDS011;42052;41.634;-0.946;2023-05-10T07:25:27;4.93;;;1.40;;
56171;SDS011;42052;41.634;-0.946;2023-05-10T07:28:14;5.13;;;1.63;;
56171;SDS011;42052;41.634;-0.946;2023-05-10T07:31:01;5.57;;;1.30;;
56171;SDS011;42052;41.634;-0.946;2023-05-10T07:33:47;3.85;;;1.17;;
56171;SDS011;42052;41.634;-0.946;2023-05-10T07:36:33;3.38;;;1.30;;
56171;SDS011;42052;41.634;-0.946;2023-05-10T07:39:20;5.30;;;1.48;;
56171;SDS011;42052;41.634;-0.946;2023-05-10T07:42:06;4.07;;;1.50;;
56171;SDS011;42052;41.634;-0.946;2023-05-10T07:44:52;4.65;;;1.33;;
56171;SDS011;42052;41.634;-0.946;2023-05-10T07:47:38;4.97;;;1.50;;
56171;SDS011;42052;41.634;-0.946;2023-05-10T07:50:24;4.30;;;1.23;;
56171;SDS011;42052;41.634;-0.946;2023-05-10T07:53:11;5.80;;;1.40;;
56171;SDS011;42052;41.634;-0.946;2023-05-10T07:55:57;5.70;;;1.60;;
56171;SDS011;42052;41.634;-0.946;2023-05-10T07:58:44;4.25;;;1.30;;
56171;SDS011;42052;41.634;-0.946;2023-05-10T08:01:30;3.45;;;1.40;;
56171;SDS011;42052;41.634;-0.946;2023-05-10T08:04:19;4.40;;;1.52;;
56171;SDS011;42052;41.634;-0.946;2023-05-10T08:07:05;4.93;;;1.42;;
56171;SDS011;42052;41.634;-0.946;2023-05-10T08:09:52;7.03;;;1.92;;
56171;SDS011;42052;41.634;-0.946;2023-05-10T08:12:38;5.38;;;1.65;;
56171;SDS011;42052;41.634;-0.946;2023-05-10T08:15:24;3.88;;;1.27;;
56171;SDS011;42052;41.634;-0.946;2023-05-10T08:18:11;7.13;;;1.60;;
56171;SDS011;42052;41.634;-0.946;2023-05-10T08:20:57;5.07;;;1.60;;
56171;SDS011;42052;41.634;-0.946;2023-05-10T08:23:43;3.03;;;1.10;;
56171;SDS011;42052;41.634;-0.946;2023-05-10T08:26:30;4.15;;;1.40;;
56171;SDS011;42052;41.634;-0.946;2023-05-10T08:29:16;5.50;;;1.50;;
56171;SDS011;42052;41.634;-0.946;2023-05-10T08:32:02;5.10;;;1.63;;
56171;SDS011;42052;41.634;-0.946;2023-05-10T08:34:48;3.90;;;1.55;;
56171;SDS011;42052;41.634;-0.946;2023-05-10T08:37:34;5.05;;;1.40;;
56171;SDS011;42052;41.634;-0.946;2023-05-10T08:40:21;3.53;;;1.65;;
56171;SDS011;42052;41.634;-0.946;2023-05-10T08:43:09;4.85;;;1.40;;
56171;SDS011;42052;41.634;-0.946;2023-05-10T08:45:59;3.55;;;1.40;;
56171;SDS011;42052;41.634;-0.946;2023-05-10T08:48:48;4.63;;;1.30;;
56171;SDS011;42052;41.634;-0.946;2023-05-10T08:51:36;2.90;;;1.20;;
56171;SDS011;42052;41.634;-0.946;2023-05-10T08:54:26;3.42;;;1.20;;
56171;SDS011;42052;41.634;-0.946;2023-05-10T08:57:12;4.07;;;1.48;;
56171;SDS011;42052;41.634;-0.946;2023-05-10T08:59:59;4.88;;;1.48;;
56171;SDS011;42052;41.634;-0.946;2023-05-10T09:02:46;5.05;;;1.50;;
56171;SDS011;42052;41.634;-0.946;2023-05-10T09:05:35;4.75;;;1.30;;
56171;SDS011;42052;41.634;-0.946;2023-05-10T09:08:25;5.55;;;1.45;;
56171;SDS011;42052;41.634;-0.946;2023-05-10T09:11:12;3.40;;;1.27;;
56171;SDS011;42052;41.634;-0.946;2023-05-10T09:13:58;5.38;;;1.38;;
56171;SDS011;42052;41.634;-0.946;2023-05-10T09:16:45;3.42;;;1.45;;
56171;SDS011;42052;41.634;-0.946;2023-05-10T09:19:32;3.20;;;1.25;;
56171;SDS011;42052;41.634;-0.946;2023-05-10T09:22:18;7.60;;;1.42;;
56171;SDS011;42052;41.634;-0.946;2023-05-10T09:28:00;4.00;;;1.40;;
56171;SDS011;42052;41.634;-0.946;2023-05-10T09:30:47;5.18;;;1.35;;
56171;SDS011;42052;41.634;-0.946;2023-05-10T09:33:45;7.22;;;1.77;;
56171;SDS011;42052;41.634;-0.946;2023-05-10T09:36:32;5.00;;;1.30;;
56171;SDS011;42052;41.634;-0.946;2023-05-10T09:39:18;3.70;;;1.10;;
56171;SDS011;42052;41.634;-0.946;2023-05-10T09:42:05;4.15;;;1.30;;
56171;SDS011;42052;41.634;-0.946;2023-05-10T09:44:53;6.10;;;1.52;;
56171;SDS011;42052;41.634;-0.946;2023-05-10T09:47:39;4.97;;;1.42;;
56171;SDS011;42052;41.634;-0.946;2023-05-10T09:50:25;5.40;;;1.40;;
56171;SDS011;42052;41.634;-0.946;2023-05-10T09:53:14;4.85;;;1.10;;
56171;SDS011;42052;41.634;-0.946;2023-05-10T09:56:01;5.78;;;1.17;;
56171;SDS011;42052;41.634;-0.946;2023-05-10T09:58:47;5.35;;;1.60;;
56171;SDS011;42052;41.634;-0.946;2023-05-10T10:01:50;5.82;;;1.52;;
56171;SDS011;42052;41.634;-0.946;2023-05-10T10:04:40;7.88;;;1.15;;
56171;SDS011;42052;41.634;-0.946;2023-05-10T10:07:27;3.83;;;1.30;;
56171;SDS011;42052;41.634;-0.946;2023-05-10T10:10:13;4.82;;;1.25;;
56171;SDS011;42052;41.634;-0.946;2023-05-10T10:12:59;5.90;;;1.27;;
56171;SDS011;42052;41.634;-0.946;2023-05-10T10:15:46;4.88;;;1.30;;
56171;SDS011;42052;41.634;-0.946;2023-05-10T10:18:36;7.13;;;1.60;;
56171;SDS011;42052;41.634;-0.946;2023-05-10T10:21:25;5.38;;;1.38;;
56171;SDS011;42052;41.634;-0.946;2023-05-10T10:24:12;5.40;;;1.38;;
56171;SDS011;42052;41.634;-0.946;2023-05-10T10:27:42;5.75;;;1.67;;
56171;SDS011;42052;41.634;-0.946;2023-05-10T10:30:16;4.87;;;1.37;;
56171;SDS011;42052;41.634;-0.946;2023-05-10T10:36:46;5.82;;;1.30;;
56171;SDS011;42052;41.634;-0.946;2023-05-10T10:39:33;5.43;;;1.40;;
56171;SDS011;42052;41.634;-0.946;2023-05-10T10:45:31;5.78;;;1.38;;
56171;SDS011;42052;41.634;-0.946;2023-05-10T10:48:21;6.00;;;1.30;;
56171;SDS011;42052;41.634;-0.946;2023-05-10T10:51:08;5.20;;;1.40;;
56171;SDS011;42052;41.634;-0.946;2023-05-10T10:53:54;5.30;;;1.33;;
56171;SDS011;42052;41.634;-0.946;2023-05-10T10:57:12;3.83;;;1.17;;
56171;SDS011;42052;41.634;-0.946;2023-05-10T11:05:59;2.97;;;1.00;;
56171;SDS011;42052;41.634;-0.946;2023-05-10T11:08:47;3.88;;;1.30;;
56171;SDS011;42052;41.634;-0.946;2023-05-10T11:11:34;5.45;;;1.23;;
56171;SDS011;42052;41.634;-0.946;2023-05-10T11:14:21;4.63;;;1.20;;
56171;SDS011;42052;41.634;-0.946;2023-05-10T11:20:27;6.63;;;1.42;;
56171;SDS011;42052;41.634;-0.946;2023-05-10T11:23:18;3.78;;;1.08;;
56171;SDS011;42052;41.634;-0.946;2023-05-10T11:26:07;4.15;;;0.90;;
56171;SDS011;42052;41.634;-0.946;2023-05-10T11:28:57;5.55;;;1.10;;
56171;SDS011;42052;41.634;-0.946;2023-05-10T11:31:46;5.45;;;1.10;;
56171;SDS011;42052;41.634;-0.946;2023-05-10T11:34:32;4.15;;;1.20;;
56171;SDS011;42052;41.634;-0.946;2023-05-10T11:37:18;5.68;;;1.23;;
56171;SDS011;42052;41.634;-0.946;2023-05-10T11:40:05;3.45;;;0.90;;
56171;SDS011;42052;41.634;-0.946;2023-05-10T11:42:51;4.35;;;1.20;;
56171;SDS011;42052;41.634;-0.946;2023-05-10T11:45:41;6.00;;;1.30;;
56171;SDS011;42052;41.634;-0.946;2023-05-10T11:48:27;5.72;;;1.15;;
56171;SDS011;42052;41.634;-0.946;2023-05-10T11:51:15;3.60;;;0.93;;
56171;SDS011;42052;41.634;-0.946;2023-05-10T11:54:06;6.68;;;1.30;;
56171;SDS011;42052;41.634;-0.946;2023-05-10T11:56:54;4.75;;;1.25;;
56171;SDS011;42052;41.634;-0.946;2023-05-10T11:59:40;5.03;;;0.85;;
56171;SDS011;42052;41.634;-0.946;2023-05-10T12:02:26;4.28;;;1.05;;
56171;SDS011;42052;41.634;-0.946;2023-05-10T12:05:12;5.18;;;1.17;;
56171;SDS011;42052;41.634;-0.946;2023-05-10T12:08:12;3.40;;;0.80;;
56171;SDS011;42052;41.634;-0.946;2023-05-10T12:11:06;6.00;;;1.27;;
56171;SDS011;42052;41.634;-0.946;2023-05-10T12:13:54;8.48;;;1.30;;
56171;SDS011;42052;41.634;-0.946;2023-05-10T12:16:42;5.70;;;1.13;;
56171;SDS011;42052;41.634;-0.946;2023-05-10T12:19:36;5.13;;;1.08;;
56171;SDS011;42052;41.634;-0.946;2023-05-10T12:22:26;5.10;;;1.02;;
56171;SDS011;42052;41.634;-0.946;2023-05-10T12:25:12;3.13;;;0.90;;
56171;SDS011;42052;41.634;-0.946;2023-05-10T12:27:59;5.65;;;1.10;;
56171;SDS011;42052;41.634;-0.946;2023-05-10T12:30:48;4.18;;;1.00;;
56171;SDS011;42052;41.634;-0.946;2023-05-10T12:33:40;7.93;;;1.20;;
56171;SDS011;42052;41.634;-0.946;2023-05-10T12:36:28;6.93;;;1.30;;
56171;SDS011;42052;41.634;-0.946;2023-05-10T12:39:14;4.00;;;1.10;;
56171;SDS011;42052;41.634;-0.946;2023-05-10T12:42:00;4.10;;;1.15;;
56171;SDS011;42052;41.634;-0.946;2023-05-10T12:44:47;4.90;;;1.10;;
56171;SDS011;42052;41.634;-0.946;2023-05-10T12:47:33;3.45;;;1.17;;
56171;SDS011;42052;41.634;-0.946;2023-05-10T12:50:19;4.97;;;0.90;;
56171;SDS011;42052;41.634;-0.946;2023-05-10T12:53:05;3.95;;;0.90;;
56171;SDS011;42052;41.634;-0.946;2023-05-10T12:55:52;5.32;;;0.98;;
56171;SDS011;42052;41.634;-0.946;2023-05-10T12:58:38;3.70;;;0.90;;
56171;SDS011;42052;41.634;-0.946;2023-05-10T13:01:24;5.57;;;1.10;;
56171;SDS011;42052;41.634;-0.946;2023-05-10T13:04:10;3.10;;;0.88;;
56171;SDS011;42052;41.634;-0.946;2023-05-10T13:06:56;5.10;;;1.00;;
56171;SDS011;42052;41.634;-0.946;2023-05-10T13:09:44;6.38;;;1.00;;
56171;SDS011;42052;41.634;-0.946;2023-05-10T13:12:30;4.22;;;1.05;;
56171;SDS011;42052;41.634;-0.946;2023-05-10T13:15:16;3.15;;;0.90;;
56171;SDS011;42052;41.634;-0.946;2023-05-10T13:18:02;2.03;;;0.68;;
56171;SDS011;42052;41.634;-0.946;2023-05-10T13:20:48;3.92;;;0.80;;
56171;SDS011;42052;41.634;-0.946;2023-05-10T13:23:35;5.60;;;0.90;;
56171;SDS011;42052;41.634;-0.946;2023-05-10T13:26:21;4.47;;;1.10;;
56171;SDS011;42052;41.634;-0.946;2023-05-10T13:29:07;5.05;;;0.88;;
56171;SDS011;42052;41.634;-0.946;2023-05-10T13:31:53;3.80;;;0.85;;
56171;SDS011;42052;41.634;-0.946;2023-05-10T13:34:39;2.88;;;0.90;;
56171;SDS011;42052;41.634;-0.946;2023-05-10T13:37:25;3.78;;;0.98;;
56171;SDS011;42052;41.634;-0.946;2023-05-10T13:40:12;5.38;;;0.60;;
56171;SDS011;42052;41.634;-0.946;2023-05-10T13:42:58;3.30;;;0.70;;
56171;SDS011;42052;41.634;-0.946;2023-05-10T13:45:45;5.88;;;1.05;;
56171;SDS011;42052;41.634;-0.946;2023-05-10T13:48:31;4.53;;;0.82;;
56171;SDS011;42052;41.634;-0.946;2023-05-10T13:51:17;4.07;;;0.93;;
56171;SDS011;42052;41.634;-0.946;2023-05-10T13:54:03;3.22;;;0.80;;
56171;SDS011;42052;41.634;-0.946;2023-05-10T13:56:50;4.20;;;0.77;;
56171;SDS011;42052;41.634;-0.946;2023-05-10T13:59:36;3.38;;;0.88;;
56171;SDS011;42052;41.634;-0.946;2023-05-10T14:02:22;2.80;;;0.60;;
56171;SDS011;42052;41.634;-0.946;2023-05-10T14:05:09;4.70;;;0.85;;
56171;SDS011;42052;41.634;-0.946;2023-05-10T14:07:55;5.25;;;0.77;;
56171;SDS011;42052;41.634;-0.946;2023-05-10T14:10:42;2.15;;;0.75;;
56171;SDS011;42052;41.634;-0.946;2023-05-10T14:13:28;4.10;;;0.90;;
56171;SDS011;42052;41.634;-0.946;2023-05-10T14:16:14;2.80;;;0.73;;
56171;SDS011;42052;41.634;-0.946;2023-05-10T14:19:00;5.10;;;0.80;;
56171;SDS011;42052;41.634;-0.946;2023-05-10T14:21:47;3.85;;;0.70;;
56171;SDS011;42052;41.634;-0.946;2023-05-10T14:24:33;3.83;;;0.85;;
56171;SDS011;42052;41.634;-0.946;2023-05-10T14:27:19;1.70;;;0.70;;
56171;SDS011;42052;41.634;-0.946;2023-05-10T14:30:05;2.35;;;0.90;;
56171;SDS011;42052;41.634;-0.946;2023-05-10T14:32:52;5.13;;;0.75;;
56171;SDS011;42052;41.634;-0.946;2023-05-10T14:35:39;5.18;;;0.88;;
56171;SDS011;42052;41.634;-0.946;2023-05-10T14:38:25;2.63;;;0.57;;
56171;SDS011;42052;41.634;-0.946;2023-05-10T14:41:11;2.25;;;0.60;;
56171;SDS011;42052;41.634;-0.946;2023-05-10T14:44:02;1.85;;;0.68;;
56171;SDS011;42052;41.634;-0.946;2023-05-10T14:46:48;2.53;;;0.60;;
56171;SDS011;42052;41.634;-0.946;2023-05-10T14:49:35;3.40;;;0.95;;
56171;SDS011;42052;41.634;-0.946;2023-05-10T14:52:21;3.45;;;0.65;;
56171;SDS011;42052;41.634;-0.946;2023-05-10T14:55:07;2.17;;;0.80;;
56171;SDS011;42052;41.634;-0.946;2023-05-10T14:57:53;3.20;;;0.60;;
56171;SDS011;42052;41.634;-0.946;2023-05-10T15:00:40;1.80;;;0.60;;
56171;SDS011;42052;41.634;-0.946;2023-05-10T15:03:26;3.05;;;0.57;;
56171;SDS011;42052;41.634;-0.946;2023-05-10T15:06:13;2.65;;;0.70;;
56171;SDS011;42052;41.634;-0.946;2023-05-10T15:09:01;2.95;;;0.80;;
56171;SDS011;42052;41.634;-0.946;2023-05-10T15:11:51;2.28;;;0.60;;
56171;SDS011;42052;41.634;-0.946;2023-05-10T15:14:37;1.15;;;0.70;;
56171;SDS011;42052;41.634;-0.946;2023-05-10T15:17:23;2.70;;;0.70;;
56171;SDS011;42052;41.634;-0.946;2023-05-10T15:20:10;5.32;;;0.70;;
56171;SDS011;42052;41.634;-0.946;2023-05-10T15:22:56;2.45;;;0.70;;
56171;SDS011;42052;41.634;-0.946;2023-05-10T15:25:42;2.47;;;0.60;;
56171;SDS011;42052;41.634;-0.946;2023-05-10T15:28:28;2.53;;;0.77;;
56171;SDS011;42052;41.634;-0.946;2023-05-10T15:31:14;2.33;;;0.70;;
56171;SDS011;42052;41.634;-0.946;2023-05-10T15:34:01;3.28;;;0.75;;
56171;SDS011;42052;41.634;-0.946;2023-05-10T15:36:47;3.30;;;0.80;;
56171;SDS011;42052;41.634;-0.946;2023-05-10T15:39:33;3.00;;;0.77;;
56171;SDS011;42052;41.634;-0.946;2023-05-10T15:42:19;4.63;;;0.73;;
56171;SDS011;42052;41.634;-0.946;2023-05-10T15:45:05;3.03;;;0.70;;
56171;SDS011;42052;41.634;-0.946;2023-05-10T15:47:52;2.83;;;0.60;;
56171;SDS011;42052;41.634;-0.946;2023-05-10T15:50:38;2.47;;;0.70;;
56171;SDS011;42052;41.634;-0.946;2023-05-10T15:53:25;2.47;;;0.60;;
56171;SDS011;42052;41.634;-0.946;2023-05-10T15:56:11;2.58;;;0.60;;
56171;SDS011;42052;41.634;-0.946;2023-05-10T15:58:59;2.80;;;0.60;;
56171;SDS011;42052;41.634;-0.946;2023-05-10T16:01:45;4.32;;;0.77;;
56171;SDS011;42052;41.634;-0.946;2023-05-10T16:04:31;3.65;;;0.70;;
56171;SDS011;42052;41.634;-0.946;2023-05-10T16:07:17;5.93;;;0.68;;
56171;SDS011;42052;41.634;-0.946;2023-05-10T16:10:04;3.90;;;0.70;;
56171;SDS011;42052;41.634;-0.946;2023-05-10T16:12:51;4.15;;;0.70;;
56171;SDS011;42052;41.634;-0.946;2023-05-10T16:15:41;3.35;;;0.60;;
56171;SDS011;42052;41.634;-0.946;2023-05-10T16:18:27;3.10;;;0.70;;
56171;SDS011;42052;41.634;-0.946;2023-05-10T16:21:13;1.42;;;0.70;;
56171;SDS011;42052;41.634;-0.946;2023-05-10T16:24:02;3.00;;;0.73;;
56171;SDS011;42052;41.634;-0.946;2023-05-10T16:26:48;4.03;;;0.52;;
56171;SDS011;42052;41.634;-0.946;2023-05-10T16:29:34;2.00;;;0.65;;
56171;SDS011;42052;41.634;-0.946;2023-05-10T16:32:20;2.15;;;0.60;;
56171;SDS011;42052;41.634;-0.946;2023-05-10T16:35:07;5.03;;;0.73;;
56171;SDS011;42052;41.634;-0.946;2023-05-10T16:37:53;5.30;;;0.60;;
56171;SDS011;42052;41.634;-0.946;2023-05-10T16:40:40;1.65;;;0.68;;
56171;SDS011;42052;41.634;-0.946;2023-05-10T16:43:26;5.00;;;0.70;;
56171;SDS011;42052;41.634;-0.946;2023-05-10T16:46:12;1.98;;;0.63;;
56171;SDS011;42052;41.634;-0.946;2023-05-10T16:48:58;4.63;;;0.50;;
56171;SDS011;42052;41.634;-0.946;2023-05-10T16:51:44;2.03;;;0.68;;
56171;SDS011;42052;41.634;-0.946;2023-05-10T16:54:30;4.30;;;0.80;;
56171;SDS011;42052;41.634;-0.946;2023-05-10T16:57:16;2.80;;;0.70;;
56171;SDS011;42052;41.634;-0.946;2023-05-10T17:00:03;3.15;;;0.60;;
56171;SDS011;42052;41.634;-0.946;2023-05-10T17:02:50;3.78;;;0.55;;
56171;SDS011;42052;41.634;-0.946;2023-05-10T17:05:38;3.63;;;0.63;;
56171;SDS011;42052;41.634;-0.946;2023-05-10T17:08:25;1.42;;;0.70;;
56171;SDS011;42052;41.634;-0.946;2023-05-10T17:11:11;1.20;;;0.60;;